createdAt,value
2023-01-30T00:00:28.254Z,1017.83
2023-01-30T00:01:48.101Z,1017.84
2023-01-30T00:06:59.548Z,1017.79
2023-01-30T00:07:59.305Z,1017.86
2023-01-30T00:08:59.518Z,1017.76
2023-01-30T00:09:59.280Z,1017.73
2023-01-30T00:10:59.510Z,1017.76
2023-01-30T00:11:59.297Z,1017.64
2023-01-30T00:12:59.510Z,1017.59
2023-01-30T00:13:59.235Z,1017.58
2023-01-30T00:14:59.477Z,1017.55
2023-01-30T00:16:19.271Z,1017.54
2023-01-30T00:16:59.482Z,1017.55
2023-01-30T00:17:59.218Z,1017.46
2023-01-30T00:18:59.477Z,1017.48
2023-01-30T00:19:59.205Z,1017.58
2023-01-30T00:20:59.011Z,1017.58
2023-01-30T00:22:00.666Z,1017.58
2023-01-30T00:26:00.335Z,1017.44
2023-01-30T00:26:59.483Z,1017.25
2023-01-30T00:27:59.433Z,1017.21
2023-01-30T00:29:00.657Z,1017.17
2023-01-30T00:30:03.252Z,1017.12
2023-01-30T00:31:00.831Z,1017.13
2023-01-30T00:32:00.337Z,1017.09
2023-01-30T00:33:00.139Z,1017.10
2023-01-30T00:34:01.241Z,1017.07
2023-01-30T00:35:19.572Z,1017.07
2023-01-30T00:36:00.845Z,1017.14
2023-01-30T00:37:08.170Z,1017.08
2023-01-30T00:38:01.311Z,1017.11
2023-01-30T00:39:01.236Z,1017.11
2023-01-30T00:40:00.249Z,1017.12
2023-01-30T00:40:59.881Z,1017.16
2023-01-30T00:42:01.086Z,1017.16
2023-01-30T00:43:00.893Z,1017.17
2023-01-30T00:44:00.308Z,1017.26
2023-01-30T00:45:19.819Z,1017.15
2023-01-30T00:46:00.853Z,1017.10
2023-01-30T00:47:01.118Z,1017.11
2023-01-30T00:48:00.950Z,1017.04
2023-01-30T00:49:00.233Z,1017.05
2023-01-30T00:50:00.337Z,1017.07
2023-01-30T00:51:00.317Z,1017.07
2023-01-30T00:52:01.168Z,1017.03
2023-01-30T00:53:00.014Z,1017.04
2023-01-30T00:54:00.745Z,1016.98
2023-01-30T00:55:19.948Z,1016.99
2023-01-30T00:56:00.101Z,1017.02
2023-01-30T00:57:00.901Z,1017.09
2023-01-30T00:58:00.673Z,1017.15
2023-01-30T00:59:01.045Z,1017.20
2023-01-30T01:00:00.832Z,1017.11
2023-01-30T01:00:59.822Z,1017.08
2023-01-30T01:01:59.717Z,1017.07
2023-01-30T01:03:00.938Z,1017.02
2023-01-30T01:04:00.719Z,1017.05
2023-01-30T01:05:19.968Z,1017.02
2023-01-30T01:06:00.809Z,1016.94
2023-01-30T01:06:59.834Z,1017.05
2023-01-30T01:08:00.967Z,1017.02
2023-01-30T01:08:59.961Z,1017.02
2023-01-30T01:10:00.554Z,1016.93
2023-01-30T01:11:00.909Z,1016.92
2023-01-30T01:12:00.688Z,1016.96
2023-01-30T01:12:59.822Z,1017.04
2023-01-30T01:14:00.294Z,1017.08
2023-01-30T01:15:19.346Z,1016.87
2023-01-30T01:16:00.847Z,1016.90
2023-01-30T01:17:00.696Z,1016.90
2023-01-30T01:18:00.479Z,1017.00
2023-01-30T01:18:59.830Z,1016.93
2023-01-30T01:20:00.659Z,1017.04
2023-01-30T01:20:59.666Z,1017.14
2023-01-30T01:22:00.751Z,1017.09
2023-01-30T01:23:00.640Z,1017.07
2023-01-30T01:23:59.854Z,1017.02
2023-01-30T01:25:19.696Z,1017.05
2023-01-30T01:26:00.469Z,1017.08
2023-01-30T01:27:00.347Z,1017.08
2023-01-30T01:28:00.640Z,1017.05
2023-01-30T01:29:00.456Z,1017.08
2023-01-30T01:30:02.101Z,1017.04
2023-01-30T01:31:00.569Z,1017.04
2023-01-30T01:32:00.415Z,1017.07
2023-01-30T01:33:00.677Z,1017.11
2023-01-30T01:34:00.449Z,1017.04
2023-01-30T01:35:19.641Z,1017.05
2023-01-30T01:35:59.976Z,1017.06
2023-01-30T01:36:59.788Z,1017.05
2023-01-30T01:38:00.590Z,1017.03
2023-01-30T01:39:00.441Z,1017.01
2023-01-30T01:40:00.237Z,1016.98
2023-01-30T01:40:59.848Z,1016.91
2023-01-30T01:42:00.412Z,1016.85
2023-01-30T01:43:00.225Z,1017.00
2023-01-30T01:44:00.507Z,1016.95
2023-01-30T01:45:19.337Z,1016.89
2023-01-30T01:46:00.619Z,1016.92
2023-01-30T01:46:59.354Z,1016.91
2023-01-30T01:48:00.158Z,1016.88
2023-01-30T01:49:00.508Z,1016.87
2023-01-30T01:49:59.548Z,1016.89
2023-01-30T01:51:00.169Z,1016.88
2023-01-30T01:52:00.475Z,1016.92
2023-01-30T01:52:59.359Z,1016.85
2023-01-30T01:53:59.575Z,1016.85
2023-01-30T01:55:20.554Z,1016.84
2023-01-30T01:56:00.112Z,1016.85
2023-01-30T01:57:00.432Z,1016.81
2023-01-30T01:57:59.360Z,1016.79
2023-01-30T01:59:00.093Z,1016.82
2023-01-30T02:00:00.365Z,1016.80
2023-01-30T02:00:59.416Z,1016.60
2023-01-30T02:02:00.029Z,1016.61
2023-01-30T02:03:00.270Z,1016.56
2023-01-30T02:03:59.347Z,1016.56
2023-01-30T02:05:19.269Z,1016.51
2023-01-30T02:06:00.197Z,1016.45
2023-01-30T02:06:59.994Z,1016.45
2023-01-30T02:08:00.264Z,1016.44
2023-01-30T02:08:59.356Z,1016.39
2023-01-30T02:09:59.357Z,1016.37
2023-01-30T02:10:59.777Z,1016.36
2023-01-30T02:11:59.278Z,1016.32
2023-01-30T02:12:59.350Z,1016.28
2023-01-30T02:14:00.194Z,1016.35
2023-01-30T02:15:18.843Z,1016.24
2023-01-30T02:16:00.227Z,1016.22
2023-01-30T02:17:00.007Z,1016.17
2023-01-30T02:17:59.028Z,1016.32
2023-01-30T02:19:00.098Z,1016.19
2023-01-30T02:19:59.947Z,1016.27
2023-01-30T02:20:59.372Z,1016.23
2023-01-30T02:22:00.116Z,1016.22
2023-01-30T02:22:59.890Z,1016.32
2023-01-30T02:24:00.197Z,1016.30
2023-01-30T02:25:20.462Z,1016.31
2023-01-30T02:25:58.366Z,1016.30
2023-01-30T02:26:59.390Z,1016.26
2023-01-30T02:27:59.829Z,1016.26
2023-01-30T02:28:59.690Z,1016.28
2023-01-30T02:29:59.201Z,1016.23
2023-01-30T02:31:00.030Z,1016.21
2023-01-30T02:31:58.879Z,1016.29
2023-01-30T02:32:58.883Z,1016.17
2023-01-30T02:33:59.704Z,1016.24
2023-01-30T02:35:20.428Z,1016.15
2023-01-30T02:35:59.793Z,1016.17
2023-01-30T02:36:59.673Z,1016.07
2023-01-30T02:37:59.953Z,1016.11
2023-01-30T02:38:59.248Z,1016.01
2023-01-30T02:40:00.055Z,1016.01
2023-01-30T02:40:59.061Z,1015.99
2023-01-30T02:41:59.211Z,1015.98
2023-01-30T02:43:00.024Z,1015.97
2023-01-30T02:43:59.819Z,1015.86
2023-01-30T02:45:19.233Z,1015.89
2023-01-30T02:45:59.898Z,1015.82
2023-01-30T02:46:59.674Z,1015.79
2023-01-30T02:47:59.941Z,1015.79
2023-01-30T02:48:59.759Z,1015.83
2023-01-30T02:49:59.556Z,1015.82
2023-01-30T02:50:58.871Z,1015.81
2023-01-30T02:51:59.781Z,1015.78
2023-01-30T02:52:59.593Z,1015.79
2023-01-30T02:53:59.873Z,1015.75
2023-01-30T02:55:18.513Z,1015.79
2023-01-30T02:55:59.423Z,1015.73
2023-01-30T02:56:58.904Z,1015.72
2023-01-30T02:57:59.579Z,1015.74
2023-01-30T02:58:59.384Z,1015.71
2023-01-30T02:59:59.715Z,1015.76
2023-01-30T03:00:59.040Z,1015.77
2023-01-30T03:01:59.819Z,1015.81
2023-01-30T03:02:58.887Z,1015.73
2023-01-30T03:03:58.909Z,1015.71
2023-01-30T03:05:18.650Z,1015.77
2023-01-30T03:05:59.446Z,1015.72
2023-01-30T03:06:59.803Z,1015.81
2023-01-30T03:07:59.669Z,1015.62
2023-01-30T03:08:58.893Z,1015.70
2023-01-30T03:09:58.513Z,1015.75
2023-01-30T03:10:59.115Z,1015.82
2023-01-30T03:11:59.440Z,1015.85
2023-01-30T03:12:58.746Z,1015.95
2023-01-30T03:13:59.548Z,1015.89
2023-01-30T03:15:18.230Z,1015.92
2023-01-30T03:15:59.738Z,1015.92
2023-01-30T03:16:59.461Z,1015.91
2023-01-30T03:17:59.315Z,1015.88
2023-01-30T03:18:59.153Z,1015.84
2023-01-30T03:19:59.477Z,1015.82
2023-01-30T03:20:58.409Z,1015.83
2023-01-30T03:21:59.226Z,1015.82
2023-01-30T03:22:59.023Z,1015.79
2023-01-30T03:23:59.449Z,1015.77
2023-01-30T03:25:18.188Z,1015.80
2023-01-30T03:25:57.395Z,1015.80
2023-01-30T03:26:59.506Z,1015.74
2023-01-30T03:27:58.885Z,1015.72
2023-01-30T03:28:59.217Z,1015.68
2023-01-30T03:29:59.545Z,1015.72
2023-01-30T03:30:59.506Z,1015.63
2023-01-30T03:31:58.418Z,1015.66
2023-01-30T03:32:59.060Z,1015.70
2023-01-30T03:33:59.381Z,1015.66
2023-01-30T03:35:18.246Z,1015.59
2023-01-30T03:35:59.037Z,1015.59
2023-01-30T03:36:58.855Z,1015.55
2023-01-30T03:37:58.432Z,1015.62
2023-01-30T03:38:59.178Z,1015.66
2023-01-30T03:39:58.979Z,1015.62
2023-01-30T03:40:58.839Z,1015.59
2023-01-30T03:41:59.157Z,1015.58
2023-01-30T03:42:58.981Z,1015.59
2023-01-30T03:43:58.446Z,1015.54
2023-01-30T03:45:17.928Z,1015.54
2023-01-30T03:45:58.454Z,1015.52
2023-01-30T03:46:58.765Z,1015.51
2023-01-30T03:47:59.083Z,1015.42
2023-01-30T03:48:58.406Z,1015.37
2023-01-30T03:49:58.687Z,1015.44
2023-01-30T03:50:58.227Z,1015.45
2023-01-30T03:51:58.847Z,1015.38
2023-01-30T03:52:58.686Z,1015.27
2023-01-30T03:53:58.560Z,1015.34
2023-01-30T03:55:18.198Z,1015.36
2023-01-30T03:55:58.669Z,1015.37
2023-01-30T03:56:58.998Z,1015.39
2023-01-30T03:57:58.867Z,1015.37
2023-01-30T03:58:59.186Z,1015.36
2023-01-30T03:59:58.559Z,1015.37
2023-01-30T04:00:57.535Z,1015.43
2023-01-30T04:01:59.178Z,1015.44
2023-01-30T04:02:59.052Z,1015.49
2023-01-30T04:03:57.984Z,1015.51
2023-01-30T04:05:17.941Z,1015.44
2023-01-30T04:05:57.924Z,1015.46
2023-01-30T04:06:57.925Z,1015.47
2023-01-30T04:07:58.951Z,1015.43
2023-01-30T04:08:58.803Z,1015.43
2023-01-30T04:09:59.074Z,1015.41
2023-01-30T04:10:58.496Z,1015.35
2023-01-30T04:11:58.730Z,1015.39
2023-01-30T04:12:57.927Z,1015.37
2023-01-30T04:13:58.827Z,1015.39
2023-01-30T04:15:17.857Z,1015.36
2023-01-30T04:15:57.407Z,1015.41
2023-01-30T04:16:57.948Z,1015.32
2023-01-30T04:17:57.450Z,1015.36
2023-01-30T04:18:57.234Z,1015.34
2023-01-30T04:19:57.470Z,1015.37
2023-01-30T04:20:57.249Z,1015.36
2023-01-30T04:21:57.589Z,1015.38
2023-01-30T04:22:58.692Z,1015.38
2023-01-30T04:23:57.608Z,1015.37
2023-01-30T04:25:17.618Z,1015.46
2023-01-30T04:25:57.470Z,1015.43
2023-01-30T04:26:57.254Z,1015.40
2023-01-30T04:27:57.008Z,1015.36
2023-01-30T04:28:57.228Z,1015.25
2023-01-30T04:29:57.018Z,1015.27
2023-01-30T04:30:57.878Z,1015.20
2023-01-30T04:31:57.074Z,1015.28
2023-01-30T04:32:57.300Z,1015.21
2023-01-30T04:33:58.524Z,1015.20
2023-01-30T04:35:17.554Z,1015.18
2023-01-30T04:35:57.101Z,1015.25
2023-01-30T04:36:58.273Z,1015.28
2023-01-30T04:37:57.110Z,1015.19
2023-01-30T04:38:57.332Z,1015.19
2023-01-30T04:39:58.528Z,1015.18
2023-01-30T04:40:57.343Z,1015.28
2023-01-30T04:41:57.150Z,1015.23
2023-01-30T04:42:57.388Z,1015.24
2023-01-30T04:43:57.167Z,1015.25
2023-01-30T04:45:17.127Z,1015.25
2023-01-30T04:45:57.164Z,1015.25
2023-01-30T04:46:58.353Z,1015.23
2023-01-30T04:47:57.215Z,1015.20
2023-01-30T04:48:58.409Z,1015.19
2023-01-30T04:49:57.218Z,1015.23
2023-01-30T04:50:58.421Z,1015.27
2023-01-30T04:51:57.250Z,1015.22
2023-01-30T04:52:57.442Z,1015.28
2023-01-30T04:53:57.277Z,1015.26
2023-01-30T04:55:17.246Z,1015.23
2023-01-30T04:55:57.693Z,1015.22
2023-01-30T04:56:57.532Z,1015.24
2023-01-30T04:57:58.259Z,1015.22
2023-01-30T04:58:57.075Z,1015.24
2023-01-30T04:59:57.324Z,1015.23
2023-01-30T05:00:57.129Z,1015.20
2023-01-30T05:01:58.378Z,1015.23
2023-01-30T05:02:58.184Z,1015.25
2023-01-30T05:03:58.457Z,1015.31
2023-01-30T05:05:17.166Z,1015.28
2023-01-30T05:05:58.479Z,1015.35
2023-01-30T05:06:58.270Z,1015.35
2023-01-30T05:07:57.775Z,1015.37
2023-01-30T05:08:56.894Z,1015.32
2023-01-30T05:09:58.074Z,1015.27
2023-01-30T05:10:57.457Z,1015.25
2023-01-30T05:11:57.648Z,1015.27
2023-01-30T05:12:57.886Z,1015.29
2023-01-30T05:13:58.206Z,1015.35
2023-01-30T05:15:17.406Z,1015.34
2023-01-30T05:15:57.459Z,1015.37
2023-01-30T05:16:58.069Z,1015.37
2023-01-30T05:17:57.863Z,1015.36
2023-01-30T05:18:58.091Z,1015.45
2023-01-30T05:19:58.365Z,1015.47
2023-01-30T05:20:57.360Z,1015.47
2023-01-30T05:21:57.465Z,1015.39
2023-01-30T05:22:58.193Z,1015.42
2023-01-30T05:23:57.987Z,1015.34
2023-01-30T05:25:17.131Z,1015.34
2023-01-30T05:25:57.511Z,1015.34
2023-01-30T05:26:57.471Z,1015.40
2023-01-30T05:27:58.109Z,1015.37
2023-01-30T05:28:57.968Z,1015.37
2023-01-30T05:29:58.249Z,1015.32
2023-01-30T05:30:58.058Z,1015.34
2023-01-30T05:31:58.304Z,1015.35
2023-01-30T05:32:58.074Z,1015.29
2023-01-30T05:33:57.919Z,1015.29
2023-01-30T05:35:17.090Z,1015.35
2023-01-30T05:35:57.323Z,1015.37
2023-01-30T05:36:58.081Z,1015.30
2023-01-30T05:37:59.449Z,1015.27
2023-01-30T05:38:58.184Z,1015.24
2023-01-30T05:39:57.897Z,1015.26
2023-01-30T05:40:58.149Z,1015.22
2023-01-30T05:41:57.468Z,1015.26
2023-01-30T05:42:56.993Z,1015.27
2023-01-30T05:43:58.023Z,1015.33
2023-01-30T05:45:16.886Z,1015.30
2023-01-30T05:45:58.073Z,1015.36
2023-01-30T05:46:57.884Z,1015.36
2023-01-30T05:48:01.284Z,1015.26
2023-01-30T05:48:58.020Z,1015.33
2023-01-30T05:49:57.814Z,1015.28
2023-01-30T05:50:56.994Z,1015.31
2023-01-30T05:51:57.901Z,1015.30
2023-01-30T05:52:56.913Z,1015.30
2023-01-30T05:53:58.032Z,1015.32
2023-01-30T05:55:16.926Z,1015.30
2023-01-30T05:55:58.081Z,1015.31
2023-01-30T05:56:56.977Z,1015.31
2023-01-30T05:57:55.601Z,1015.32
2023-01-30T05:58:56.342Z,1015.23
2023-01-30T05:59:56.098Z,1015.26
2023-01-30T06:00:56.327Z,1015.19
2023-01-30T06:01:56.096Z,1015.23
2023-01-30T06:02:56.384Z,1015.21
2023-01-30T06:03:55.587Z,1015.18
2023-01-30T06:05:18.051Z,1015.33
2023-01-30T06:05:56.082Z,1015.27
2023-01-30T06:06:56.320Z,1015.29
2023-01-30T06:07:56.068Z,1015.36
2023-01-30T06:08:56.329Z,1015.49
2023-01-30T06:09:56.085Z,1015.52
2023-01-30T06:10:56.322Z,1015.59
2023-01-30T06:11:56.075Z,1015.60
2023-01-30T06:12:56.311Z,1015.55
2023-01-30T06:13:56.067Z,1015.54
2023-01-30T06:15:16.803Z,1015.54
2023-01-30T06:15:56.226Z,1015.55
2023-01-30T06:16:55.962Z,1015.60
2023-01-30T06:17:56.186Z,1015.60
2023-01-30T06:18:55.912Z,1015.56
2023-01-30T06:19:56.184Z,1015.61
2023-01-30T06:20:55.917Z,1015.56
2023-01-30T06:21:56.167Z,1015.56
2023-01-30T06:22:55.912Z,1015.50
2023-01-30T06:23:56.153Z,1015.47
2023-01-30T06:25:17.771Z,1015.56
2023-01-30T06:25:56.280Z,1015.48
2023-01-30T06:26:56.011Z,1015.51
2023-01-30T06:27:56.284Z,1015.57
2023-01-30T06:28:56.015Z,1015.46
2023-01-30T06:29:55.760Z,1015.48
2023-01-30T06:30:58.608Z,1015.46
2023-01-30T06:31:55.805Z,1015.47
2023-01-30T06:32:56.111Z,1015.43
2023-01-30T06:33:55.886Z,1015.54
2023-01-30T06:35:17.950Z,1015.48
2023-01-30T06:35:55.979Z,1015.57
2023-01-30T06:36:55.742Z,1015.58
2023-01-30T06:37:55.993Z,1015.57
2023-01-30T06:38:55.739Z,1015.64
2023-01-30T06:39:57.449Z,1015.72
2023-01-30T06:40:56.457Z,1015.76
2023-01-30T06:41:57.589Z,1015.79
2023-01-30T06:42:56.507Z,1015.73
2023-01-30T06:43:57.269Z,1015.74
2023-01-30T06:45:16.578Z,1015.70
2023-01-30T06:45:57.404Z,1015.71
2023-01-30T06:46:57.192Z,1015.70
2023-01-30T06:47:56.987Z,1015.73
2023-01-30T06:48:56.517Z,1015.70
2023-01-30T06:49:57.065Z,1015.68
2023-01-30T06:50:56.905Z,1015.62
2023-01-30T06:51:55.336Z,1015.66
2023-01-30T06:52:55.727Z,1015.62
2023-01-30T06:53:55.525Z,1015.69
2023-01-30T06:55:15.564Z,1015.78
2023-01-30T06:55:56.480Z,1015.81
2023-01-30T06:56:56.516Z,1015.83
2023-01-30T06:57:56.458Z,1015.82
2023-01-30T06:58:56.435Z,1015.87
2023-01-30T06:59:56.713Z,1015.83
2023-01-30T07:00:55.537Z,1015.85
2023-01-30T07:01:56.445Z,1015.90
2023-01-30T07:02:56.453Z,1015.88
2023-01-30T07:03:56.475Z,1015.89
2023-01-30T07:05:14.967Z,1015.86
2023-01-30T07:05:55.536Z,1015.91
2023-01-30T07:06:55.533Z,1015.83
2023-01-30T07:07:56.360Z,1015.81
2023-01-30T07:08:56.321Z,1015.83
2023-01-30T07:10:07.308Z,1015.78
2023-01-30T07:10:57.300Z,1015.76
2023-01-30T07:11:55.033Z,1015.80
2023-01-30T07:12:54.839Z,1015.78
2023-01-30T07:13:54.788Z,1015.73
2023-01-30T07:15:16.895Z,1015.71
2023-01-30T07:15:54.774Z,1015.75
2023-01-30T07:16:54.789Z,1015.80
2023-01-30T07:17:54.755Z,1015.70
2023-01-30T07:18:54.760Z,1015.77
2023-01-30T07:19:54.762Z,1015.79
2023-01-30T07:20:54.710Z,1015.75
2023-01-30T07:21:55.460Z,1015.82
2023-01-30T07:22:55.198Z,1015.79
2023-01-30T07:23:55.450Z,1015.89
2023-01-30T07:25:16.571Z,1015.88
2023-01-30T07:25:55.508Z,1015.92
2023-01-30T07:26:55.232Z,1015.96
2023-01-30T07:27:55.502Z,1015.95
2023-01-30T07:28:55.238Z,1016.00
2023-01-30T07:29:55.508Z,1016.05
2023-01-30T07:30:55.257Z,1015.99
2023-01-30T07:31:55.553Z,1016.03
2023-01-30T07:32:55.238Z,1016.05
2023-01-30T07:33:55.514Z,1016.13
2023-01-30T07:35:16.232Z,1016.08
2023-01-30T07:35:55.543Z,1016.07
2023-01-30T07:36:55.306Z,1016.13
2023-01-30T07:37:55.053Z,1016.18
2023-01-30T07:38:55.285Z,1016.20
2023-01-30T07:39:55.052Z,1016.16
2023-01-30T07:40:55.275Z,1016.16
2023-01-30T07:41:56.962Z,1016.11
2023-01-30T07:42:55.283Z,1016.23
2023-01-30T07:43:55.035Z,1016.14
2023-01-30T07:45:16.343Z,1016.19
2023-01-30T07:45:55.424Z,1016.15
2023-01-30T07:46:55.278Z,1016.16
2023-01-30T07:47:55.480Z,1016.16
2023-01-30T07:48:55.224Z,1016.10
2023-01-30T07:49:54.987Z,1016.19
2023-01-30T07:50:55.222Z,1016.12
2023-01-30T07:51:54.998Z,1016.20
2023-01-30T07:52:55.233Z,1016.24
2023-01-30T07:53:54.990Z,1016.22
2023-01-30T07:55:17.090Z,1016.24
2023-01-30T07:55:55.027Z,1016.20
2023-01-30T07:56:55.271Z,1016.17
2023-01-30T07:57:55.019Z,1016.18
2023-01-30T07:58:55.244Z,1016.19
2023-01-30T07:59:55.022Z,1016.22
2023-01-30T08:00:55.326Z,1016.18
2023-01-30T08:01:55.031Z,1016.17
2023-01-30T08:02:54.770Z,1016.17
2023-01-30T08:03:55.023Z,1016.14
2023-01-30T08:05:15.569Z,1016.16
2023-01-30T08:05:55.064Z,1016.20
2023-01-30T08:06:54.812Z,1016.18
2023-01-30T08:07:55.080Z,1016.15
2023-01-30T08:08:54.811Z,1016.21
2023-01-30T08:09:55.059Z,1016.19
2023-01-30T08:10:54.790Z,1016.16
2023-01-30T08:11:55.059Z,1016.21
2023-01-30T08:12:54.802Z,1016.17
2023-01-30T08:13:55.063Z,1016.11
2023-01-30T08:15:16.313Z,1016.12
2023-01-30T08:15:55.119Z,1016.13
2023-01-30T08:16:54.892Z,1016.16
2023-01-30T08:17:55.129Z,1016.11
2023-01-30T08:18:54.875Z,1016.13
2023-01-30T08:19:54.657Z,1016.19
2023-01-30T08:20:54.901Z,1016.18
2023-01-30T08:21:54.647Z,1016.23
2023-01-30T08:22:54.902Z,1016.20
2023-01-30T08:23:54.643Z,1016.26
2023-01-30T08:25:16.484Z,1016.29
2023-01-30T08:25:54.768Z,1016.26
2023-01-30T08:26:55.036Z,1016.32
2023-01-30T08:27:54.788Z,1016.26
2023-01-30T08:28:54.539Z,1016.35
2023-01-30T08:29:54.820Z,1016.34
2023-01-30T08:30:54.726Z,1016.34
2023-01-30T08:31:54.843Z,1016.39
2023-01-30T08:32:54.600Z,1016.49
2023-01-30T08:33:54.821Z,1016.46
2023-01-30T08:35:16.088Z,1016.46
2023-01-30T08:35:54.863Z,1016.47
2023-01-30T08:36:54.613Z,1016.55
2023-01-30T08:37:54.855Z,1016.49
2023-01-30T08:38:54.614Z,1016.50
2023-01-30T08:39:54.856Z,1016.55
2023-01-30T08:40:54.606Z,1016.51
2023-01-30T08:41:54.847Z,1016.52
2023-01-30T08:42:54.603Z,1016.54
2023-01-30T08:43:54.363Z,1016.56
2023-01-30T08:45:15.113Z,1016.52
2023-01-30T08:45:54.409Z,1016.58
2023-01-30T08:46:54.675Z,1016.57
2023-01-30T08:47:54.399Z,1016.57
2023-01-30T08:48:54.657Z,1016.55
2023-01-30T08:49:54.408Z,1016.61
2023-01-30T08:50:54.679Z,1016.55
2023-01-30T08:51:54.408Z,1016.54
2023-01-30T08:52:54.654Z,1016.62
2023-01-30T08:53:54.416Z,1016.54
2023-01-30T08:55:15.389Z,1016.59
2023-01-30T08:55:53.796Z,1016.49
2023-01-30T08:56:54.488Z,1016.44
2023-01-30T08:57:54.209Z,1016.53
2023-01-30T08:58:54.498Z,1016.43
2023-01-30T08:59:54.227Z,1016.49
2023-01-30T09:00:54.537Z,1016.52
2023-01-30T09:01:54.219Z,1016.52
2023-01-30T09:02:54.491Z,1016.61
2023-01-30T09:03:54.231Z,1016.56
2023-01-30T09:05:15.980Z,1016.64
2023-01-30T09:05:54.267Z,1016.63
2023-01-30T09:06:54.515Z,1016.71
2023-01-30T09:07:54.260Z,1016.69
2023-01-30T09:08:54.532Z,1016.58
2023-01-30T09:09:54.271Z,1016.60
2023-01-30T09:10:54.534Z,1016.58
2023-01-30T09:11:54.268Z,1016.74
2023-01-30T09:12:54.530Z,1016.73
2023-01-30T09:13:54.331Z,1016.75
2023-01-30T09:15:16.024Z,1016.61
2023-01-30T09:15:54.306Z,1016.63
2023-01-30T09:16:54.109Z,1016.63
2023-01-30T09:17:54.334Z,1016.63
2023-01-30T09:18:54.050Z,1016.53
2023-01-30T09:19:54.312Z,1016.57
2023-01-30T09:20:54.066Z,1016.51
2023-01-30T09:21:54.312Z,1016.59
2023-01-30T09:22:54.092Z,1016.57
2023-01-30T09:23:54.319Z,1016.49
2023-01-30T09:25:15.596Z,1016.49
2023-01-30T09:25:54.352Z,1016.53
2023-01-30T09:26:54.169Z,1016.49
2023-01-30T09:27:53.908Z,1016.54
2023-01-30T09:28:54.169Z,1016.52
2023-01-30T09:29:53.909Z,1016.51
2023-01-30T09:30:54.211Z,1016.54
2023-01-30T09:31:53.923Z,1016.54
2023-01-30T09:32:54.181Z,1016.57
2023-01-30T09:33:53.927Z,1016.63
2023-01-30T09:35:15.676Z,1016.65
2023-01-30T09:35:53.321Z,1016.59
2023-01-30T09:36:54.068Z,1016.63
2023-01-30T09:37:53.799Z,1016.60
2023-01-30T09:38:54.047Z,1016.66
2023-01-30T09:39:53.799Z,1016.58
2023-01-30T09:40:54.056Z,1016.47
2023-01-30T09:41:53.797Z,1016.58
2023-01-30T09:42:54.055Z,1016.54
2023-01-30T09:43:53.800Z,1016.51
2023-01-30T09:45:15.561Z,1016.61
2023-01-30T09:45:54.185Z,1016.59
2023-01-30T09:46:53.968Z,1016.65
2023-01-30T09:47:54.196Z,1016.68
2023-01-30T09:48:53.945Z,1016.71
2023-01-30T09:49:53.684Z,1016.59
2023-01-30T09:50:53.955Z,1016.68
2023-01-30T09:51:53.719Z,1016.64
2023-01-30T09:52:53.955Z,1016.65
2023-01-30T09:53:53.695Z,1016.66
2023-01-30T09:55:15.442Z,1016.64
2023-01-30T09:55:53.076Z,1016.68
2023-01-30T09:56:55.323Z,1016.73
2023-01-30T09:57:55.102Z,1016.57
2023-01-30T09:58:54.616Z,1016.62
2023-01-30T09:59:54.619Z,1016.73
2023-01-30T10:00:55.069Z,1016.67
2023-01-30T10:01:55.350Z,1016.77
2023-01-30T10:02:55.171Z,1016.86
2023-01-30T10:03:55.457Z,1016.77
2023-01-30T10:05:13.844Z,1016.80
2023-01-30T10:05:55.071Z,1016.76
2023-01-30T10:06:55.376Z,1016.84
2023-01-30T10:07:55.188Z,1016.86
2023-01-30T10:08:54.979Z,1016.83
2023-01-30T10:09:55.354Z,1016.84
2023-01-30T10:11:09.002Z,1016.88
2023-01-30T10:11:55.173Z,1016.83
2023-01-30T10:12:55.257Z,1016.94
2023-01-30T10:13:55.053Z,1016.92
2023-01-30T10:15:14.885Z,1016.86
2023-01-30T10:15:54.151Z,1016.98
2023-01-30T10:16:54.135Z,1016.90
2023-01-30T10:17:54.863Z,1016.86
2023-01-30T10:18:55.168Z,1016.92
2023-01-30T10:19:54.940Z,1016.92
2023-01-30T10:20:55.337Z,1016.86
2023-01-30T10:21:55.115Z,1016.90
2023-01-30T10:22:54.158Z,1016.91
2023-01-30T10:23:54.728Z,1016.96
2023-01-30T10:25:48.240Z,1017.16
2023-01-30T10:25:54.672Z,1016.98
2023-01-30T10:26:55.425Z,1016.90
2023-01-30T10:27:55.246Z,1017.06
2023-01-30T10:29:06.155Z,1016.91
2023-01-30T10:29:55.837Z,1017.02
2023-01-30T10:30:55.268Z,1017.03
2023-01-30T10:31:55.507Z,1017.00
2023-01-30T10:32:55.268Z,1017.03
2023-01-30T10:33:54.608Z,1017.08
2023-01-30T10:35:13.975Z,1017.10
2023-01-30T10:35:55.166Z,1017.01
2023-01-30T10:36:55.009Z,1017.12
2023-01-30T10:37:54.540Z,1017.09
2023-01-30T10:38:54.143Z,1017.15
2023-01-30T10:39:55.658Z,1017.15
2023-01-30T10:40:55.256Z,1017.16
2023-01-30T10:41:55.093Z,1017.22
2023-01-30T10:42:54.920Z,1017.17
2023-01-30T10:43:55.187Z,1017.15
2023-01-30T10:45:13.553Z,1017.21
2023-01-30T10:45:55.289Z,1017.16
2023-01-30T10:46:54.682Z,1017.18
2023-01-30T10:47:54.933Z,1017.15
2023-01-30T10:48:55.244Z,1017.17
2023-01-30T10:49:54.244Z,1017.16
2023-01-30T10:50:54.152Z,1017.18
2023-01-30T10:51:55.129Z,1017.13
2023-01-30T10:52:55.010Z,1017.21
2023-01-30T10:53:54.885Z,1017.23
2023-01-30T10:55:13.729Z,1017.30
2023-01-30T10:55:54.933Z,1017.26
2023-01-30T10:56:53.819Z,1017.28
2023-01-30T10:57:55.106Z,1017.24
2023-01-30T10:58:54.126Z,1017.22
2023-01-30T10:59:54.757Z,1017.28
2023-01-30T11:00:55.069Z,1017.31
2023-01-30T11:01:54.886Z,1017.33
2023-01-30T11:02:54.184Z,1017.38
2023-01-30T11:03:54.575Z,1017.32
2023-01-30T11:05:13.438Z,1017.35
2023-01-30T11:05:55.138Z,1017.35
2023-01-30T11:06:54.935Z,1017.31
2023-01-30T11:07:54.318Z,1017.31
2023-01-30T11:08:54.144Z,1017.35
2023-01-30T11:09:54.128Z,1017.35
2023-01-30T11:10:54.762Z,1017.37
2023-01-30T11:11:55.025Z,1017.39
2023-01-30T11:12:54.825Z,1017.55
2023-01-30T11:13:54.706Z,1017.24
2023-01-30T11:15:14.167Z,1017.42
2023-01-30T11:15:53.354Z,1017.35
2023-01-30T11:16:53.093Z,1017.42
2023-01-30T11:17:54.450Z,1017.43
2023-01-30T11:19:53.500Z,1017.39
2023-01-30T11:20:53.261Z,1017.45
2023-01-30T11:21:53.064Z,1017.37
2023-01-30T11:22:53.295Z,1017.51
2023-01-30T11:23:53.022Z,1017.41
2023-01-30T11:25:13.993Z,1017.37
2023-01-30T11:26:05.475Z,1017.37
2023-01-30T11:26:54.252Z,1017.42
2023-01-30T11:27:52.958Z,1017.44
2023-01-30T11:28:53.228Z,1017.40
2023-01-30T11:29:52.970Z,1017.58
2023-01-30T11:30:53.263Z,1017.47
2023-01-30T11:31:53.048Z,1017.54
2023-01-30T11:32:53.221Z,1017.48
2023-01-30T11:33:52.966Z,1017.53
2023-01-30T11:35:14.737Z,1017.45
2023-01-30T11:35:53.282Z,1017.49
2023-01-30T11:36:53.105Z,1017.52
2023-01-30T11:37:53.360Z,1017.63
2023-01-30T11:38:53.081Z,1017.60
2023-01-30T11:39:52.824Z,1017.55
2023-01-30T11:40:53.075Z,1017.57
2023-01-30T11:41:52.813Z,1017.61
2023-01-30T11:42:53.061Z,1017.67
2023-01-30T11:43:52.823Z,1017.57
2023-01-30T11:45:18.139Z,1017.54
2023-01-30T11:45:53.204Z,1017.56
2023-01-30T11:46:52.961Z,1017.56
2023-01-30T11:48:02.291Z,1017.52
2023-01-30T11:49:14.100Z,1017.61
2023-01-30T11:50:01.152Z,1017.61
2023-01-30T11:50:53.183Z,1017.63
2023-01-30T11:51:52.916Z,1017.61
2023-01-30T11:52:52.663Z,1017.58
2023-01-30T11:53:52.923Z,1017.60
2023-01-30T11:55:13.718Z,1017.57
2023-01-30T11:56:02.556Z,1017.64
2023-01-30T11:56:53.750Z,1017.59
2023-01-30T11:57:52.984Z,1017.63
2023-01-30T11:58:52.743Z,1017.55
2023-01-30T11:59:52.975Z,1017.65
2023-01-30T12:00:52.763Z,1017.53
2023-01-30T12:01:53.040Z,1017.51
2023-01-30T12:02:52.787Z,1017.59
2023-01-30T12:03:53.031Z,1017.59
2023-01-30T12:05:14.302Z,1017.60
2023-01-30T12:05:52.660Z,1017.60
2023-01-30T12:06:52.828Z,1017.56
2023-01-30T12:07:52.577Z,1017.69
2023-01-30T12:08:52.878Z,1017.60
2023-01-30T12:09:52.599Z,1017.69
2023-01-30T12:10:52.848Z,1017.62
2023-01-30T12:11:52.576Z,1017.69
2023-01-30T12:12:52.831Z,1017.67
2023-01-30T12:13:52.579Z,1017.69